createdAt,value
2023-02-16T00:02:24.410Z,-0.27
2023-02-16T00:07:17.211Z,-0.31
2023-02-16T00:12:36.970Z,-0.35
2023-02-16T00:17:29.748Z,-0.42
2023-02-16T00:22:22.520Z,-0.49
2023-02-16T00:27:18.625Z,-0.52
2023-02-16T00:32:13.629Z,-0.53
2023-02-16T00:37:12.081Z,-0.54
2023-02-16T00:42:24.210Z,-0.53
2023-02-16T00:47:22.285Z,-0.56
2023-02-16T00:52:38.384Z,-0.64
2023-02-16T00:57:35.278Z,-0.66
2023-02-16T01:02:28.390Z,-0.68
2023-02-16T01:07:39.254Z,-0.72
2023-02-16T01:12:32.394Z,-0.77
2023-02-16T01:17:25.933Z,-0.75
2023-02-16T01:22:21.635Z,-0.75
2023-02-16T01:27:15.060Z,-0.78
2023-02-16T01:32:13.724Z,-0.85
2023-02-16T01:37:06.617Z,-0.86
2023-02-16T01:42:12.651Z,-0.88
2023-02-16T01:47:25.986Z,-0.89
2023-02-16T01:52:28.588Z,-0.91
2023-02-16T01:57:45.634Z,-0.92
2023-02-16T02:02:44.206Z,-0.93
2023-02-16T02:07:54.182Z,-0.98
2023-02-16T02:13:29.175Z,-1.02
2023-02-16T02:18:22.426Z,-1.07
2023-02-16T02:23:53.807Z,-1.06
2023-02-16T02:29:24.182Z,-1.08
2023-02-16T02:34:24.071Z,-1.18
2023-02-16T02:39:46.554Z,-1.21
2023-02-16T02:45:13.011Z,-1.24
2023-02-16T02:50:39.261Z,-1.29
2023-02-16T02:55:55.419Z,-1.35
2023-02-16T03:00:51.865Z,-1.39
2023-02-16T03:05:52.262Z,-1.39
2023-02-16T03:11:09.068Z,-1.42
2023-02-16T03:16:06.709Z,-1.43
2023-02-16T03:21:17.497Z,-1.41
2023-02-16T03:26:29.411Z,-1.45
2023-02-16T03:31:29.603Z,-1.50
2023-02-16T03:36:28.366Z,-1.50
2023-02-16T03:41:21.194Z,-1.54
2023-02-16T03:46:14.537Z,-1.57
2023-02-16T03:51:07.375Z,-1.58
2023-02-16T03:56:00.173Z,-1.62
2023-02-16T04:00:54.285Z,-1.61
2023-02-16T04:05:49.163Z,-1.62
2023-02-16T04:10:42.058Z,-1.62
2023-02-16T04:15:34.980Z,-1.60
2023-02-16T04:20:32.973Z,-1.60
2023-02-16T04:25:26.460Z,-1.63
2023-02-16T04:30:25.798Z,-1.61
2023-02-16T04:35:19.319Z,-1.62
2023-02-16T04:40:14.151Z,-1.64
2023-02-16T04:45:07.441Z,-1.65
2023-02-16T04:50:00.208Z,-1.66
2023-02-16T04:54:53.096Z,-1.69
2023-02-16T04:59:46.512Z,-1.72
2023-02-16T05:04:39.573Z,-1.74
2023-02-16T05:09:32.400Z,-1.77
2023-02-16T05:14:43.217Z,-1.76
2023-02-16T05:19:36.149Z,-1.76
2023-02-16T05:24:28.943Z,-1.77
2023-02-16T05:29:21.772Z,-1.78
2023-02-16T05:34:15.040Z,-1.80
2023-02-16T05:39:07.799Z,-1.77
2023-02-16T05:44:04.591Z,-1.78
2023-02-16T05:48:57.386Z,-1.80
2023-02-16T05:53:50.361Z,-1.80
2023-02-16T05:58:43.147Z,-1.80
2023-02-16T06:03:37.025Z,-1.78
2023-02-16T06:08:30.659Z,-1.72
2023-02-16T06:13:25.364Z,-1.64
2023-02-16T06:18:18.400Z,-1.61
2023-02-16T06:23:13.568Z,-1.57
2023-02-16T06:28:06.596Z,-1.46
2023-02-16T06:32:59.383Z,-1.37
2023-02-16T06:37:52.267Z,-1.28
2023-02-16T06:42:45.275Z,-1.16
2023-02-16T06:47:38.824Z,-1.02
2023-02-16T06:52:31.607Z,-0.91
2023-02-16T06:57:24.427Z,-0.75
2023-02-16T07:02:17.252Z,-0.58
2023-02-16T07:07:10.539Z,-0.38
2023-02-16T07:12:03.316Z,-0.15
2023-02-16T07:16:59.164Z,0.08
2023-02-16T07:21:52.135Z,0.30
2023-02-16T07:26:44.960Z,0.47
2023-02-16T07:31:37.817Z,0.67
2023-02-16T07:36:30.687Z,0.93
2023-02-16T07:41:23.576Z,1.20
2023-02-16T07:46:16.589Z,1.48
2023-02-16T07:51:09.422Z,1.72
2023-02-16T07:56:02.228Z,1.91
2023-02-16T08:01:07.515Z,2.10
2023-02-16T08:06:04.535Z,2.22
2023-02-16T08:10:57.285Z,2.35
2023-02-16T08:15:50.049Z,2.56
2023-02-16T08:21:02.337Z,2.76
2023-02-16T08:25:59.236Z,2.95
2023-02-16T08:30:53.355Z,3.16
2023-02-16T08:35:46.168Z,3.39
2023-02-16T08:40:38.920Z,3.51
2023-02-16T08:45:31.922Z,3.66
2023-02-16T08:50:24.929Z,3.88
2023-02-16T08:55:18.373Z,4.12
2023-02-16T09:00:29.372Z,4.28
2023-02-16T09:05:22.569Z,4.58
2023-02-16T09:10:15.361Z,5.08
2023-02-16T09:15:08.704Z,5.23
2023-02-16T09:20:02.289Z,5.60
2023-02-16T09:24:55.059Z,5.58
2023-02-16T09:29:47.878Z,5.77
2023-02-16T09:34:40.669Z,6.37
2023-02-16T09:39:33.848Z,6.49
2023-02-16T09:45:09.866Z,6.53
2023-02-16T09:50:14.682Z,7.07
2023-02-16T09:55:17.332Z,7.03
2023-02-16T10:00:37.560Z,7.02
2023-02-16T10:05:42.559Z,7.08
2023-02-16T10:10:51.076Z,7.11
2023-02-16T10:15:46.150Z,7.51
2023-02-16T10:20:44.017Z,7.87
2023-02-16T10:25:54.921Z,8.27
2023-02-16T10:30:58.370Z,8.56
2023-02-16T10:35:58.324Z,8.89
2023-02-16T10:41:05.774Z,8.80
2023-02-16T10:46:02.075Z,8.52
2023-02-16T10:51:02.388Z,8.89
2023-02-16T10:55:58.160Z,9.16
2023-02-16T11:00:58.001Z,9.22
2023-02-16T11:05:53.432Z,9.96
2023-02-16T11:10:52.540Z,10.25
2023-02-16T11:15:54.638Z,10.51
2023-02-16T11:20:47.824Z,10.52
2023-02-16T11:25:40.759Z,10.65
2023-02-16T11:30:36.700Z,10.81
2023-02-16T11:35:32.987Z,11.03
2023-02-16T11:40:34.923Z,11.27
2023-02-16T11:45:36.609Z,11.55
2023-02-16T11:50:35.270Z,11.80
2023-02-16T11:55:33.688Z,12.38
2023-02-16T12:00:28.202Z,13.02
2023-02-16T12:05:50.263Z,13.15
2023-02-16T12:11:28.193Z,12.59
2023-02-16T12:16:30.914Z,11.87
2023-02-16T12:21:46.464Z,11.52
2023-02-16T12:26:42.708Z,11.11
2023-02-16T12:31:54.355Z,10.87
2023-02-16T12:36:59.197Z,10.71
2023-02-16T12:42:00.591Z,10.43
2023-02-16T12:47:12.930Z,10.07
2023-02-16T12:52:18.569Z,9.82
2023-02-16T12:57:17.476Z,9.72
2023-02-16T13:02:40.492Z,9.71
2023-02-16T13:07:39.941Z,9.62
2023-02-16T13:12:40.623Z,9.72
2023-02-16T13:17:39.648Z,9.85
2023-02-16T13:22:38.431Z,9.74
2023-02-16T13:27:46.814Z,9.53
2023-02-16T13:33:19.967Z,9.50
2023-02-16T13:38:43.711Z,9.52
2023-02-16T13:43:42.429Z,9.41
2023-02-16T13:48:47.225Z,9.24
2023-02-16T13:53:43.260Z,9.07
2023-02-16T13:58:36.576Z,8.92
2023-02-16T14:03:38.809Z,8.75
2023-02-16T14:08:32.805Z,8.54
2023-02-16T14:13:33.545Z,8.34
2023-02-16T14:18:48.138Z,8.13
2023-02-16T14:23:41.708Z,7.95
2023-02-16T14:28:35.458Z,7.78
2023-02-16T14:33:51.390Z,7.60
2023-02-16T14:38:47.289Z,7.48
2023-02-16T14:43:53.973Z,7.40
2023-02-16T14:49:26.011Z,7.29
2023-02-16T14:54:37.888Z,7.21
2023-02-16T14:59:33.440Z,7.13
2023-02-16T15:04:31.577Z,7.01
2023-02-16T15:09:32.032Z,6.87
2023-02-16T15:14:26.956Z,6.73
2023-02-16T15:19:28.945Z,6.64
2023-02-16T15:24:25.413Z,6.59
2023-02-16T15:29:18.789Z,6.49
2023-02-16T15:34:28.480Z,6.37
2023-02-16T15:39:45.252Z,6.25
2023-02-16T15:44:42.058Z,6.14
2023-02-16T15:49:38.992Z,6.04
2023-02-16T15:54:35.648Z,5.98
2023-02-16T15:59:55.316Z,5.88
2023-02-16T16:04:55.043Z,5.81
2023-02-16T16:09:48.843Z,5.75
2023-02-16T16:14:49.165Z,5.66
2023-02-16T16:19:42.046Z,5.57
2023-02-16T16:24:39.141Z,5.51
2023-02-16T16:29:42.369Z,5.47
2023-02-16T16:34:42.273Z,5.38
2023-02-16T16:39:40.505Z,5.25
2023-02-16T16:44:39.169Z,5.20
2023-02-16T16:49:31.985Z,5.13
2023-02-16T16:54:36.590Z,5.06
2023-02-16T16:59:29.381Z,5.09
2023-02-16T17:04:22.285Z,5.04
2023-02-16T17:09:16.865Z,4.99
2023-02-16T17:14:19.001Z,4.90
2023-02-16T17:19:16.681Z,4.87
2023-02-16T17:24:10.344Z,4.74
2023-02-16T17:29:03.681Z,4.57
2023-02-16T17:33:56.463Z,4.41
2023-02-16T17:38:49.949Z,4.25
2023-02-16T17:43:42.718Z,4.11
2023-02-16T17:48:35.479Z,3.97
2023-02-16T17:53:29.562Z,3.80
2023-02-16T17:58:24.246Z,3.66
2023-02-16T18:03:18.195Z,3.54
2023-02-16T18:08:12.531Z,3.37
2023-02-16T18:13:07.137Z,3.22
2023-02-16T18:18:01.031Z,3.13
2023-02-16T18:22:54.774Z,3.04
2023-02-16T18:27:47.816Z,2.91
2023-02-16T18:32:41.923Z,2.84
2023-02-16T18:37:38.345Z,2.74
2023-02-16T18:42:31.118Z,2.63
2023-02-16T18:47:26.424Z,2.51
2023-02-16T18:52:20.155Z,2.41
2023-02-16T18:57:13.039Z,2.35
2023-02-16T19:02:05.939Z,2.31
2023-02-16T19:06:59.365Z,2.23
2023-02-16T19:11:54.061Z,2.16
2023-02-16T19:16:47.753Z,2.06
2023-02-16T19:21:41.244Z,1.96
2023-02-16T19:26:34.097Z,1.87
2023-02-16T19:31:30.077Z,1.82
2023-02-16T19:36:23.933Z,1.79
2023-02-16T19:41:23.803Z,1.76
2023-02-16T19:46:17.201Z,1.74
2023-02-16T19:51:11.375Z,1.72
2023-02-16T19:56:09.368Z,1.68
2023-02-16T20:01:10.923Z,1.66
2023-02-16T20:06:20.879Z,1.62
2023-02-16T20:11:15.765Z,1.58
2023-02-16T20:16:10.218Z,1.56
2023-02-16T20:21:08.992Z,1.53
2023-02-16T20:26:05.376Z,1.56
2023-02-16T20:30:58.401Z,1.58
2023-02-16T20:35:51.217Z,1.55
2023-02-16T20:40:44.995Z,1.53
2023-02-16T20:45:41.379Z,1.53
2023-02-16T20:50:34.306Z,1.60
2023-02-16T20:55:27.203Z,1.59
2023-02-16T21:00:21.835Z,1.57
2023-02-16T21:05:15.025Z,1.53
2023-02-16T21:10:10.271Z,1.56
2023-02-16T21:15:03.355Z,1.67
2023-02-16T21:19:56.225Z,1.79
2023-02-16T21:24:49.070Z,1.88
2023-02-16T21:29:41.869Z,1.96
2023-02-16T21:34:34.706Z,2.08
2023-02-16T21:39:41.430Z,2.14
2023-02-16T21:44:34.411Z,2.15
2023-02-16T21:49:27.175Z,2.25
2023-02-16T21:54:41.444Z,2.38
2023-02-16T21:59:35.102Z,2.47
2023-02-16T22:04:28.697Z,2.49
2023-02-16T22:09:24.488Z,2.55
2023-02-16T22:14:17.908Z,2.57
2023-02-16T22:19:14.171Z,2.55
2023-02-16T22:24:07.740Z,2.49
2023-02-16T22:29:01.051Z,2.44
2023-02-16T22:34:03.099Z,2.39
2023-02-16T22:38:56.465Z,2.36
2023-02-16T22:43:49.488Z,2.39
2023-02-16T22:48:43.152Z,2.44
2023-02-16T22:53:38.166Z,2.47
2023-02-16T22:58:31.134Z,2.50
2023-02-16T23:03:24.210Z,2.51
2023-02-16T23:08:17.586Z,2.49
2023-02-16T23:13:10.899Z,2.47
2023-02-16T23:18:03.946Z,2.47
2023-02-16T23:22:57.674Z,2.52
2023-02-16T23:27:53.767Z,2.53
2023-02-16T23:32:47.843Z,2.56
2023-02-16T23:37:40.876Z,2.65
2023-02-16T23:42:33.767Z,2.71
2023-02-16T23:47:26.606Z,2.72
2023-02-16T23:52:19.950Z,2.70
2023-02-16T23:57:13.049Z,2.72
